createdAt,value
2023-02-08T00:01:59.308Z,2.94
2023-02-08T00:04:27.271Z,2.97
2023-02-08T00:06:54.924Z,2.97
2023-02-08T00:09:22.616Z,2.95
2023-02-08T00:11:50.300Z,2.95
2023-02-08T00:14:18.071Z,2.96
2023-02-08T00:16:45.715Z,2.96
2023-02-08T00:19:14.817Z,2.98
2023-02-08T00:21:42.550Z,2.99
2023-02-08T00:24:10.277Z,2.98
2023-02-08T00:26:37.968Z,2.99
2023-02-08T00:29:05.567Z,2.99
2023-02-08T00:31:33.378Z,3.01
2023-02-08T00:34:01.113Z,3.02
2023-02-08T00:36:30.123Z,3.03
2023-02-08T00:38:57.786Z,3.04
2023-02-08T00:41:25.492Z,3.05
2023-02-08T00:43:53.572Z,3.04
2023-02-08T00:46:21.764Z,3.04
2023-02-08T00:48:49.625Z,3.04
2023-02-08T00:51:17.244Z,3.06
2023-02-08T00:53:47.056Z,3.07
2023-02-08T00:56:15.318Z,3.06
2023-02-08T00:58:43.029Z,3.07
2023-02-08T01:01:11.041Z,3.07
2023-02-08T01:03:39.686Z,3.09
2023-02-08T01:06:08.202Z,3.09
2023-02-08T01:08:38.862Z,3.10
2023-02-08T01:11:09.984Z,3.11
2023-02-08T01:13:37.982Z,3.11
2023-02-08T01:16:10.098Z,3.12
2023-02-08T01:18:38.143Z,3.12
2023-02-08T01:21:07.159Z,3.13
2023-02-08T01:23:34.839Z,3.14
2023-02-08T01:26:02.580Z,3.14
2023-02-08T01:28:31.631Z,3.14
2023-02-08T01:30:59.781Z,3.14
2023-02-08T01:33:27.965Z,3.15
2023-02-08T01:35:55.853Z,3.16
2023-02-08T01:38:23.530Z,3.16
2023-02-08T01:40:51.200Z,3.17
2023-02-08T01:43:22.061Z,3.16
2023-02-08T01:45:51.222Z,3.17
2023-02-08T01:48:21.275Z,3.19
2023-02-08T01:50:52.540Z,3.22
2023-02-08T01:53:20.871Z,3.22
2023-02-08T01:55:50.098Z,3.22
2023-02-08T01:58:19.419Z,3.21
2023-02-08T02:00:48.154Z,3.22
2023-02-08T02:03:17.385Z,3.24
2023-02-08T02:05:46.223Z,3.24
2023-02-08T02:08:14.408Z,3.23
2023-02-08T02:10:43.196Z,3.25
2023-02-08T02:13:12.552Z,3.26
2023-02-08T02:15:40.296Z,3.25
2023-02-08T02:18:09.219Z,3.26
2023-02-08T02:21:07.927Z,3.25
2023-02-08T02:23:54.161Z,3.24
2023-02-08T02:26:49.049Z,3.24
2023-02-08T02:29:26.646Z,3.24
2023-02-08T02:32:05.740Z,3.24
2023-02-08T02:34:38.686Z,3.24
2023-02-08T02:37:12.707Z,3.23
2023-02-08T02:39:45.136Z,3.23
2023-02-08T02:42:29.468Z,3.22
2023-02-08T02:45:04.437Z,3.22
2023-02-08T02:47:37.235Z,3.21
2023-02-08T02:50:09.585Z,3.20
2023-02-08T02:52:40.748Z,3.19
2023-02-08T02:55:11.553Z,3.18
2023-02-08T02:57:40.380Z,3.19
2023-02-08T03:00:08.798Z,3.18
2023-02-08T03:02:37.874Z,3.18
2023-02-08T03:05:07.632Z,3.17
2023-02-08T03:07:47.689Z,3.17
2023-02-08T03:10:29.937Z,3.16
2023-02-08T03:13:02.016Z,3.15
2023-02-08T03:15:33.177Z,3.16
2023-02-08T03:18:06.935Z,3.17
2023-02-08T03:20:37.265Z,3.17
2023-02-08T03:23:10.260Z,3.18
2023-02-08T03:25:44.471Z,3.16
2023-02-08T03:28:17.342Z,3.17
2023-02-08T03:30:50.043Z,3.19
2023-02-08T03:33:23.012Z,3.16
2023-02-08T03:35:53.567Z,3.16
2023-02-08T03:38:23.854Z,3.18
2023-02-08T03:40:53.875Z,3.17
2023-02-08T03:43:24.480Z,3.20
2023-02-08T03:45:53.705Z,3.19
2023-02-08T03:48:24.188Z,3.20
2023-02-08T03:50:53.383Z,3.20
2023-02-08T03:53:23.127Z,3.19
2023-02-08T03:55:54.196Z,3.20
2023-02-08T03:58:23.396Z,3.22
2023-02-08T04:00:56.093Z,3.20
2023-02-08T04:03:26.087Z,3.19
2023-02-08T04:05:53.976Z,3.22
2023-02-08T04:08:22.000Z,3.21
2023-02-08T04:10:50.104Z,3.21
2023-02-08T04:13:17.837Z,3.23
2023-02-08T04:15:45.546Z,3.22
2023-02-08T04:18:13.334Z,3.24
2023-02-08T04:20:42.628Z,3.22
2023-02-08T04:23:10.395Z,3.23
2023-02-08T04:25:38.015Z,3.21
2023-02-08T04:28:05.920Z,3.22
2023-02-08T04:30:33.629Z,3.22
2023-02-08T04:33:01.247Z,3.22
2023-02-08T04:35:29.289Z,3.21
2023-02-08T04:37:58.496Z,3.22
2023-02-08T04:40:26.160Z,3.25
2023-02-08T04:42:53.809Z,3.25
2023-02-08T04:45:21.427Z,3.27
2023-02-08T04:47:49.103Z,3.26
2023-02-08T04:50:16.974Z,3.28
2023-02-08T04:52:44.712Z,3.30
2023-02-08T04:55:13.892Z,3.31
2023-02-08T04:57:41.571Z,3.33
2023-02-08T05:00:09.772Z,3.32
2023-02-08T05:02:37.428Z,3.32
2023-02-08T05:05:05.275Z,3.30
2023-02-08T05:07:32.992Z,3.31
2023-02-08T05:10:00.587Z,3.33
2023-02-08T05:12:29.622Z,3.35
2023-02-08T05:14:57.254Z,3.36
2023-02-08T05:17:24.945Z,3.35
2023-02-08T05:19:52.654Z,3.34
2023-02-08T05:22:20.296Z,3.36
2023-02-08T05:24:47.911Z,3.40
2023-02-08T05:27:17.616Z,3.41
2023-02-08T05:29:46.640Z,3.39
2023-02-08T05:32:14.299Z,3.42
2023-02-08T05:34:42.267Z,3.39
2023-02-08T05:37:09.891Z,3.40
2023-02-08T05:39:37.496Z,3.44
2023-02-08T05:42:05.281Z,3.45
2023-02-08T05:44:33.926Z,3.45
2023-02-08T05:47:04.065Z,3.43
2023-02-08T05:49:31.793Z,3.44
2023-02-08T05:51:59.507Z,3.43
2023-02-08T05:54:27.221Z,3.41
2023-02-08T05:56:54.883Z,3.40
2023-02-08T05:59:22.768Z,3.41
2023-02-08T06:01:50.443Z,3.47
2023-02-08T06:04:19.637Z,3.48
2023-02-08T06:06:48.876Z,3.48
2023-02-08T06:09:16.489Z,3.48
2023-02-08T06:11:44.764Z,3.48
2023-02-08T06:14:13.194Z,3.48
2023-02-08T06:16:40.838Z,3.45
2023-02-08T06:19:08.501Z,3.45
2023-02-08T06:21:37.533Z,3.44
2023-02-08T06:24:06.797Z,3.44
2023-02-08T06:26:34.531Z,3.45
2023-02-08T06:29:02.230Z,3.46
2023-02-08T06:31:29.949Z,3.50
2023-02-08T06:33:57.686Z,3.48
2023-02-08T06:36:25.336Z,3.47
2023-02-08T06:38:54.445Z,3.46
2023-02-08T06:41:22.108Z,3.50
2023-02-08T06:43:49.828Z,3.53
2023-02-08T06:46:17.521Z,3.51
2023-02-08T06:48:45.211Z,3.51
2023-02-08T06:51:12.849Z,3.53
2023-02-08T06:53:40.565Z,3.52
2023-02-08T06:56:09.732Z,3.51
2023-02-08T06:58:38.049Z,3.51
2023-02-08T07:01:05.879Z,3.53
2023-02-08T07:03:35.948Z,3.54
2023-02-08T07:06:05.260Z,3.54
2023-02-08T07:08:33.525Z,3.55
2023-02-08T07:11:01.228Z,3.57
2023-02-08T07:13:30.333Z,3.58
2023-02-08T07:15:58.071Z,3.58
2023-02-08T07:18:25.830Z,3.59
2023-02-08T07:20:53.519Z,3.58
2023-02-08T07:23:21.190Z,3.58
2023-02-08T07:25:57.123Z,3.60
2023-02-08T07:28:24.804Z,3.62
2023-02-08T07:30:54.245Z,3.62
2023-02-08T07:33:21.970Z,3.64
2023-02-08T07:35:49.782Z,3.64
2023-02-08T07:38:19.740Z,3.64
2023-02-08T07:40:48.288Z,3.66
2023-02-08T07:43:15.992Z,3.67
2023-02-08T07:45:43.705Z,3.70
2023-02-08T07:48:12.831Z,3.73
2023-02-08T07:50:40.758Z,3.76
2023-02-08T07:53:08.584Z,3.78
2023-02-08T07:55:36.250Z,3.79
2023-02-08T07:58:03.891Z,3.82
2023-02-08T08:00:31.615Z,3.84
2023-02-08T08:02:59.312Z,3.87
2023-02-08T08:05:28.480Z,3.88
2023-02-08T08:07:56.150Z,3.89
2023-02-08T08:10:23.832Z,3.93
2023-02-08T08:12:51.495Z,3.95
2023-02-08T08:15:19.260Z,3.95
2023-02-08T08:17:46.861Z,3.98
2023-02-08T08:20:14.596Z,4.01
2023-02-08T08:22:44.575Z,4.06
2023-02-08T08:25:12.312Z,4.08
2023-02-08T08:27:40.112Z,4.11
2023-02-08T08:30:08.248Z,4.16
2023-02-08T08:32:35.925Z,4.19
2023-02-08T08:35:03.620Z,4.19
2023-02-08T08:37:31.405Z,4.22
2023-02-08T08:40:00.511Z,4.26
2023-02-08T08:42:28.204Z,4.28
2023-02-08T08:44:55.897Z,4.29
2023-02-08T08:47:23.610Z,4.30
2023-02-08T08:49:51.267Z,4.35
2023-02-08T08:52:18.992Z,4.38
2023-02-08T08:54:46.752Z,4.42
2023-02-08T08:57:15.864Z,4.44
2023-02-08T08:59:43.547Z,4.48
2023-02-08T09:02:12.647Z,4.52
2023-02-08T09:04:41.203Z,4.53
2023-02-08T09:07:09.249Z,4.56
2023-02-08T09:09:37.349Z,4.58
2023-02-08T09:12:05.708Z,4.59
2023-02-08T09:14:34.926Z,4.61
2023-02-08T09:17:02.602Z,4.61
2023-02-08T09:19:30.312Z,4.61
2023-02-08T09:21:58.252Z,4.63
2023-02-08T09:24:25.936Z,4.64
2023-02-08T09:26:53.616Z,4.63
2023-02-08T09:29:21.284Z,4.64
2023-02-08T09:31:50.393Z,4.65
2023-02-08T09:34:18.096Z,4.69
2023-02-08T09:36:45.707Z,4.70
2023-02-08T09:39:15.159Z,4.69
2023-02-08T09:41:52.817Z,4.73
2023-02-08T09:44:24.707Z,4.75
2023-02-08T09:46:57.718Z,4.75
2023-02-08T09:49:28.488Z,4.77
2023-02-08T09:52:00.095Z,4.80
2023-02-08T09:54:29.599Z,4.81
2023-02-08T09:56:58.245Z,4.80
2023-02-08T09:59:27.197Z,4.83
2023-02-08T10:01:59.498Z,4.84
2023-02-08T10:04:32.976Z,4.88
2023-02-08T10:07:00.760Z,4.88
2023-02-08T10:09:28.809Z,4.91
2023-02-08T10:12:04.010Z,4.93
2023-02-08T10:14:39.166Z,4.94
2023-02-08T10:17:15.080Z,4.95
2023-02-08T10:19:51.372Z,4.98
2023-02-08T10:22:24.116Z,5.01
2023-02-08T10:25:02.161Z,5.00
2023-02-08T10:27:33.761Z,5.03
2023-02-08T10:30:16.107Z,5.02
2023-02-08T10:32:52.244Z,5.03
2023-02-08T10:35:26.270Z,5.04
2023-02-08T10:37:55.001Z,5.05
2023-02-08T10:40:27.740Z,5.03
2023-02-08T10:42:59.404Z,5.05
2023-02-08T10:45:28.916Z,5.05
2023-02-08T10:47:59.569Z,5.06
2023-02-08T10:50:31.082Z,5.04
2023-02-08T10:52:58.761Z,5.06
2023-02-08T10:55:26.997Z,5.06
2023-02-08T10:57:58.441Z,5.07
2023-02-08T11:00:27.685Z,5.08
2023-02-08T11:02:56.891Z,5.07
2023-02-08T11:05:35.111Z,5.07
2023-02-08T11:08:06.610Z,5.10
2023-02-08T11:10:34.476Z,5.08
2023-02-08T11:13:05.699Z,5.10
2023-02-08T11:15:38.403Z,5.10
2023-02-08T11:18:07.104Z,5.13
2023-02-08T11:20:40.071Z,5.13
2023-02-08T11:23:20.234Z,5.15
2023-02-08T11:25:47.981Z,5.17
2023-02-08T11:28:23.897Z,5.17
2023-02-08T11:30:59.588Z,5.17
2023-02-08T11:33:28.460Z,5.16
2023-02-08T11:35:59.764Z,5.19
2023-02-08T11:38:28.577Z,5.21
2023-02-08T11:40:57.554Z,5.22
2023-02-08T11:43:26.720Z,5.23
2023-02-08T11:45:55.482Z,5.26
2023-02-08T11:48:25.747Z,5.27
2023-02-08T11:50:55.394Z,5.28
2023-02-08T11:53:28.026Z,5.27
2023-02-08T11:56:19.703Z,5.30
2023-02-08T11:58:57.931Z,5.33
2023-02-08T12:01:28.769Z,5.35
2023-02-08T12:03:58.169Z,5.34
2023-02-08T12:06:43.475Z,5.36
2023-02-08T12:09:20.944Z,5.36
2023-02-08T12:11:49.680Z,5.36
2023-02-08T12:14:24.140Z,5.37
2023-02-08T12:16:58.354Z,5.41
2023-02-08T12:19:39.533Z,5.42
2023-02-08T12:22:10.455Z,5.41
2023-02-08T12:24:43.792Z,5.42
2023-02-08T12:27:23.116Z,5.44
2023-02-08T12:29:55.983Z,5.43
2023-02-08T12:32:30.231Z,5.45
2023-02-08T12:35:03.185Z,5.43
2023-02-08T12:37:55.441Z,5.45
2023-02-08T12:40:48.071Z,5.47
2023-02-08T12:43:21.943Z,5.45
2023-02-08T12:45:56.303Z,5.46
2023-02-08T12:48:29.852Z,5.48
2023-02-08T12:51:02.628Z,5.47
2023-02-08T12:53:34.511Z,5.47
2023-02-08T12:56:07.917Z,5.46
2023-02-08T12:58:38.647Z,5.46
2023-02-08T13:01:10.432Z,5.45
2023-02-08T13:03:42.940Z,5.45
2023-02-08T13:06:16.497Z,5.46
2023-02-08T13:08:46.922Z,5.47
2023-02-08T13:11:20.498Z,5.47
2023-02-08T13:13:53.623Z,5.48
2023-02-08T13:16:23.789Z,5.50
2023-02-08T13:18:54.252Z,5.46
2023-02-08T13:21:24.495Z,5.46
2023-02-08T13:23:53.386Z,5.50
2023-02-08T13:26:26.395Z,5.49
2023-02-08T13:28:55.145Z,5.48
2023-02-08T13:31:24.171Z,5.48
2023-02-08T13:34:01.312Z,5.47
2023-02-08T13:36:31.594Z,5.49
2023-02-08T13:39:00.155Z,5.50
2023-02-08T13:41:29.890Z,5.48
2023-02-08T13:43:59.473Z,5.47
2023-02-08T13:46:29.197Z,5.49
2023-02-08T13:48:59.980Z,5.55
2023-02-08T13:51:58.666Z,5.54
2023-02-08T13:54:26.694Z,5.55
2023-02-08T13:56:55.767Z,5.56
2023-02-08T13:59:33.705Z,5.59
2023-02-08T14:02:19.916Z,5.62
2023-02-08T14:04:48.332Z,5.62
2023-02-08T14:07:21.465Z,5.66
2023-02-08T14:09:53.705Z,5.66
2023-02-08T14:12:24.894Z,5.66
2023-02-08T14:15:11.094Z,5.66
2023-02-08T14:17:43.301Z,5.67
2023-02-08T14:20:18.835Z,5.69
2023-02-08T14:22:50.468Z,5.66
2023-02-08T14:25:19.566Z,5.67
2023-02-08T14:27:53.388Z,5.66
2023-02-08T14:30:26.096Z,5.68
2023-02-08T14:32:55.768Z,5.66
2023-02-08T14:35:24.537Z,5.68
2023-02-08T14:38:12.160Z,5.67
2023-02-08T14:40:50.476Z,5.68
2023-02-08T14:43:36.687Z,5.68
2023-02-08T14:46:23.077Z,5.68
2023-02-08T14:48:51.054Z,5.72
2023-02-08T14:51:23.091Z,5.74
2023-02-08T14:53:53.744Z,5.73
2023-02-08T14:56:23.019Z,5.72
2023-02-08T14:58:55.288Z,5.71
2023-02-08T15:01:26.132Z,5.70
2023-02-08T15:03:56.137Z,5.69
2023-02-08T15:06:49.956Z,5.68
2023-02-08T15:09:19.961Z,5.67
2023-02-08T15:11:54.393Z,5.66
2023-02-08T15:14:23.828Z,5.67
2023-02-08T15:16:53.587Z,5.66
2023-02-08T15:19:23.189Z,5.66
2023-02-08T15:21:50.877Z,5.64
2023-02-08T15:24:21.830Z,5.62
2023-02-08T15:26:50.989Z,5.63
2023-02-08T15:29:19.998Z,5.65
2023-02-08T15:31:49.388Z,5.66
2023-02-08T15:34:17.846Z,5.61
2023-02-08T15:36:47.597Z,5.59
2023-02-08T15:39:22.379Z,5.63
2023-02-08T15:41:50.028Z,5.62
2023-02-08T15:44:19.633Z,5.67
2023-02-08T15:46:48.050Z,5.67
2023-02-08T15:49:17.694Z,5.69
2023-02-08T15:51:45.624Z,5.64
2023-02-08T15:54:16.861Z,5.62
2023-02-08T15:56:48.645Z,5.65
2023-02-08T15:59:21.139Z,5.63
2023-02-08T16:01:49.092Z,5.63
2023-02-08T16:04:18.329Z,5.61
2023-02-08T16:06:47.730Z,5.60
2023-02-08T16:09:18.095Z,5.62
2023-02-08T16:11:49.231Z,5.59
2023-02-08T16:14:18.087Z,5.57
2023-02-08T16:16:47.399Z,5.58
2023-02-08T16:19:27.080Z,5.55
2023-02-08T16:21:55.516Z,5.58
2023-02-08T16:24:24.753Z,5.56
2023-02-08T16:27:05.761Z,5.57
2023-02-08T16:29:34.615Z,5.55
2023-02-08T16:32:03.873Z,5.55
2023-02-08T16:34:36.910Z,5.57
2023-02-08T16:37:06.104Z,5.55
2023-02-08T16:39:39.551Z,5.52
2023-02-08T16:42:15.733Z,5.46
2023-02-08T16:44:58.885Z,5.43
2023-02-08T16:47:27.181Z,5.37
2023-02-08T16:49:56.301Z,5.39
2023-02-08T16:52:24.003Z,5.37
2023-02-08T16:54:51.707Z,5.35
2023-02-08T16:57:19.534Z,5.33
2023-02-08T16:59:47.214Z,5.29
2023-02-08T17:02:14.937Z,5.28
2023-02-08T17:04:42.536Z,5.28
2023-02-08T17:07:18.075Z,5.28
2023-02-08T17:09:45.761Z,5.23
2023-02-08T17:12:21.862Z,5.20
2023-02-08T17:14:50.353Z,5.17
2023-02-08T17:17:18.066Z,5.15
2023-02-08T17:19:47.013Z,5.13
2023-02-08T17:22:16.110Z,5.07
2023-02-08T17:24:43.769Z,5.07
2023-02-08T17:27:12.834Z,5.05
2023-02-08T17:29:40.847Z,5.04
2023-02-08T17:32:08.536Z,5.02
2023-02-08T17:34:36.684Z,5.02
2023-02-08T17:37:04.444Z,4.98
2023-02-08T17:39:33.507Z,4.96
2023-02-08T17:42:01.167Z,4.94
2023-02-08T17:44:29.151Z,4.92
2023-02-08T17:46:56.826Z,4.91
2023-02-08T17:49:24.541Z,4.88
2023-02-08T17:51:52.239Z,4.93
2023-02-08T17:54:21.024Z,4.88
2023-02-08T17:56:56.493Z,4.88
2023-02-08T17:59:24.176Z,4.87
2023-02-08T18:01:51.838Z,4.89
2023-02-08T18:04:19.516Z,4.85
2023-02-08T18:06:47.184Z,4.85
2023-02-08T18:09:14.894Z,4.85
2023-02-08T18:11:42.503Z,4.84
2023-02-08T18:14:11.560Z,4.81
2023-02-08T18:16:39.313Z,4.80
2023-02-08T18:19:07.008Z,4.78
2023-02-08T18:21:34.855Z,4.78
2023-02-08T18:24:03.129Z,4.78
2023-02-08T18:26:33.619Z,4.75
2023-02-08T18:29:02.071Z,4.74
2023-02-08T18:31:31.293Z,4.73
2023-02-08T18:33:59.087Z,4.70
2023-02-08T18:36:26.771Z,4.70
2023-02-08T18:38:55.765Z,4.66
2023-02-08T18:41:25.390Z,4.65
2023-02-08T18:43:55.373Z,4.64
2023-02-08T18:46:23.980Z,4.61
2023-02-08T18:48:53.795Z,4.59
2023-02-08T18:51:22.293Z,4.58
2023-02-08T18:53:51.362Z,4.60
2023-02-08T18:56:21.495Z,4.56
2023-02-08T18:58:49.106Z,4.58
2023-02-08T19:01:18.079Z,4.54
2023-02-08T19:03:45.953Z,4.55
2023-02-08T19:06:16.312Z,4.55
2023-02-08T19:08:44.460Z,4.53
2023-02-08T19:11:15.827Z,4.53
2023-02-08T19:13:43.440Z,4.51
2023-02-08T19:16:11.479Z,4.50
2023-02-08T19:18:39.291Z,4.51
2023-02-08T19:21:07.598Z,4.50
2023-02-08T19:23:36.732Z,4.48
2023-02-08T19:26:04.822Z,4.49
2023-02-08T19:28:33.962Z,4.46
2023-02-08T19:31:05.781Z,4.46
2023-02-08T19:33:33.560Z,4.44
2023-02-08T19:36:07.067Z,4.40
2023-02-08T19:38:36.160Z,4.37
2023-02-08T19:41:03.970Z,4.37
2023-02-08T19:43:31.937Z,4.34
2023-02-08T19:45:59.954Z,4.34
2023-02-08T19:48:27.759Z,4.34
2023-02-08T19:50:56.369Z,4.31
2023-02-08T19:53:24.077Z,4.30
2023-02-08T19:55:59.449Z,4.32
2023-02-08T19:58:27.064Z,4.30
2023-02-08T20:00:54.922Z,4.26
2023-02-08T20:03:23.095Z,4.27
2023-02-08T20:05:51.438Z,4.25
2023-02-08T20:08:20.550Z,4.20
2023-02-08T20:10:49.234Z,4.13
2023-02-08T20:13:18.291Z,4.05
2023-02-08T20:15:46.085Z,4.01
2023-02-08T20:18:15.083Z,3.90
2023-02-08T20:20:43.547Z,3.86
2023-02-08T20:23:21.979Z,3.81
2023-02-08T20:25:49.969Z,3.82
2023-02-08T20:28:19.046Z,3.76
2023-02-08T20:30:46.889Z,3.70
2023-02-08T20:33:15.770Z,3.71
2023-02-08T20:35:43.853Z,3.68
2023-02-08T20:38:11.961Z,3.71
2023-02-08T20:40:39.763Z,3.74
2023-02-08T20:43:07.369Z,3.80
2023-02-08T20:45:36.506Z,3.82
2023-02-08T20:48:04.155Z,3.83
2023-02-08T20:50:33.160Z,3.82
2023-02-08T20:53:00.830Z,3.80
2023-02-08T20:55:28.518Z,3.81
2023-02-08T20:57:56.177Z,3.78
2023-02-08T21:00:26.025Z,3.80
2023-02-08T21:02:59.560Z,3.78
2023-02-08T21:05:27.278Z,3.75
2023-02-08T21:07:54.955Z,3.75
2023-02-08T21:10:22.551Z,3.70
2023-02-08T21:12:50.228Z,3.68
2023-02-08T21:15:18.061Z,3.69
2023-02-08T21:17:48.227Z,3.66
2023-02-08T21:20:17.409Z,3.63
2023-02-08T21:22:45.124Z,3.60
2023-02-08T21:25:12.821Z,3.55
2023-02-08T21:27:40.500Z,3.53
2023-02-08T21:30:08.527Z,3.55
2023-02-08T21:32:36.204Z,3.55
2023-02-08T21:35:03.909Z,3.54
2023-02-08T21:37:33.947Z,3.50
2023-02-08T21:40:01.578Z,3.46
2023-02-08T21:42:29.304Z,3.42
2023-02-08T21:44:58.544Z,3.34
2023-02-08T21:47:26.295Z,3.32
2023-02-08T21:50:11.245Z,3.31
2023-02-08T21:52:57.826Z,3.23
2023-02-08T21:55:25.518Z,3.17
2023-02-08T21:57:53.170Z,3.09
2023-02-08T22:00:20.944Z,3.07
2023-02-08T22:02:48.767Z,3.03
2023-02-08T22:05:16.510Z,2.93
2023-02-08T22:07:47.039Z,2.82
2023-02-08T22:10:15.630Z,2.79
2023-02-08T22:12:43.352Z,2.76
2023-02-08T22:15:12.012Z,2.65
2023-02-08T22:17:39.658Z,2.61
2023-02-08T22:20:08.153Z,2.55
2023-02-08T22:22:35.867Z,2.56
2023-02-08T22:25:05.074Z,2.52
2023-02-08T22:27:32.762Z,2.43
2023-02-08T22:30:00.476Z,2.36
2023-02-08T22:32:28.234Z,2.31
2023-02-08T22:34:55.987Z,2.28
2023-02-08T22:37:23.656Z,2.26
2023-02-08T22:39:51.351Z,2.22
2023-02-08T22:42:20.489Z,2.18
2023-02-08T22:44:48.194Z,2.17
2023-02-08T22:47:15.924Z,2.12
2023-02-08T22:49:43.620Z,2.08
2023-02-08T22:52:47.381Z,2.08
2023-02-08T22:55:15.065Z,2.06
2023-02-08T22:57:44.143Z,2.04
2023-02-08T23:00:14.297Z,2.00
2023-02-08T23:02:51.230Z,1.99
2023-02-08T23:05:34.194Z,1.99
2023-02-08T23:08:01.887Z,1.97
2023-02-08T23:10:29.668Z,1.90
2023-02-08T23:12:58.727Z,1.87
2023-02-08T23:15:26.409Z,1.85
2023-02-08T23:17:54.108Z,1.87
2023-02-08T23:20:21.785Z,1.77
2023-02-08T23:22:49.506Z,1.76
2023-02-08T23:25:17.950Z,1.78
2023-02-08T23:27:45.575Z,1.81
2023-02-08T23:30:14.789Z,1.75
2023-02-08T23:32:42.513Z,1.74
2023-02-08T23:35:10.508Z,1.71
2023-02-08T23:37:38.760Z,1.73
2023-02-08T23:40:06.892Z,1.73
2023-02-08T23:42:34.768Z,1.73
2023-02-08T23:45:02.587Z,1.73
2023-02-08T23:47:31.804Z,1.72
2023-02-08T23:49:59.472Z,1.71
2023-02-08T23:52:27.280Z,1.71
2023-02-08T23:54:54.893Z,1.72
2023-02-08T23:57:22.599Z,1.72
2023-02-08T23:59:50.363Z,1.74
